createdAt,value
2018-01-10T00:01:51.259Z,86.90
2018-01-10T00:04:20.723Z,86.10
2018-01-10T00:06:49.996Z,86.10
2018-01-10T00:09:18.610Z,86.10
2018-01-10T00:11:47.173Z,86.60
2018-01-10T00:14:16.725Z,86.40
2018-01-10T00:16:46.065Z,86.50
2018-01-10T00:19:14.617Z,86.40
2018-01-10T00:21:43.870Z,86.70
2018-01-10T00:24:12.433Z,86.60
2018-01-10T00:26:41.096Z,86.30
2018-01-10T00:29:09.636Z,85.80
2018-01-10T00:31:38.164Z,86.10
2018-01-10T00:34:06.670Z,86.00
2018-01-10T00:36:36.247Z,86.50
2018-01-10T00:39:04.937Z,86.30
2018-01-10T00:41:33.989Z,86.10
2018-01-10T00:44:02.807Z,85.90
2018-01-10T00:46:32.173Z,85.60
2018-01-10T00:49:00.708Z,85.60
2018-01-10T00:51:29.398Z,85.40
2018-01-10T00:53:57.933Z,85.00
2018-01-10T00:56:26.521Z,85.30
2018-01-10T00:58:55.845Z,87.30
2018-01-10T01:01:24.429Z,87.20
2018-01-10T01:03:52.987Z,87.50
2018-01-10T01:06:22.384Z,87.50
2018-01-10T01:08:51.641Z,87.20
2018-01-10T01:11:20.252Z,87.20
2018-01-10T01:13:48.761Z,87.20
2018-01-10T01:16:18.132Z,87.30
2018-01-10T01:18:46.624Z,87.30
2018-01-10T01:21:15.192Z,87.20
2018-01-10T01:23:43.692Z,86.90
2018-01-10T01:26:13.098Z,88.50
2018-01-10T01:28:42.401Z,87.50
2018-01-10T01:31:11.845Z,87.70
2018-01-10T01:33:40.403Z,87.70
2018-01-10T01:36:08.978Z,88.30
2018-01-10T01:38:38.312Z,88.80
2018-01-10T01:41:06.919Z,88.80
2018-01-10T01:43:35.412Z,89.20
2018-01-10T01:46:03.672Z,88.90
2018-01-10T01:48:33.262Z,87.90
2018-01-10T01:51:01.862Z,87.60
2018-01-10T01:53:30.425Z,87.40
2018-01-10T01:55:58.972Z,87.00
2018-01-10T01:58:28.273Z,88.00
2018-01-10T02:00:57.599Z,88.30
2018-01-10T02:03:26.149Z,88.30
2018-01-10T02:05:55.462Z,89.10
2018-01-10T02:08:24.021Z,89.00
2018-01-10T02:10:53.408Z,87.90
2018-01-10T02:13:21.962Z,87.70
2018-01-10T02:15:50.495Z,88.40
2018-01-10T02:18:19.772Z,88.60
2018-01-10T02:20:48.017Z,88.50
2018-01-10T02:23:16.514Z,88.40
2018-01-10T02:25:45.117Z,88.60
2018-01-10T02:28:13.607Z,88.40
2018-01-10T02:30:42.913Z,88.80
2018-01-10T02:33:12.224Z,89.20
2018-01-10T02:35:41.498Z,89.60
2018-01-10T02:38:10.028Z,89.60
2018-01-10T02:40:38.650Z,88.90
2018-01-10T02:43:07.133Z,88.30
2018-01-10T02:45:36.470Z,87.60
2018-01-10T02:48:06.470Z,86.80
2018-01-10T02:50:36.089Z,87.10
2018-01-10T02:53:05.351Z,87.40
2018-01-10T02:55:34.244Z,87.40
2018-01-10T02:58:02.799Z,87.20
2018-01-10T03:00:31.340Z,87.20
2018-01-10T03:03:00.809Z,88.30
2018-01-10T03:05:29.349Z,88.30
2018-01-10T03:07:57.877Z,88.30
2018-01-10T03:10:26.470Z,88.50
2018-01-10T03:12:55.005Z,87.80
2018-01-10T03:15:23.633Z,87.90
2018-01-10T03:17:52.176Z,87.30
2018-01-10T03:20:20.685Z,87.90
2018-01-10T03:22:49.226Z,87.60
2018-01-10T03:25:17.791Z,87.50
2018-01-10T03:27:46.294Z,87.30
2018-01-10T03:30:14.798Z,88.00
2018-01-10T03:32:43.441Z,87.30
2018-01-10T03:35:11.982Z,86.80
2018-01-10T03:37:40.535Z,86.20
2018-01-10T03:40:09.079Z,86.00
2018-01-10T03:42:38.724Z,85.60
2018-01-10T03:45:07.265Z,85.40
2018-01-10T03:47:36.679Z,85.70
2018-01-10T03:50:04.855Z,85.70
2018-01-10T03:52:33.812Z,86.10
2018-01-10T03:55:03.124Z,86.10
2018-01-10T03:57:32.429Z,85.40
2018-01-10T04:00:01.890Z,85.70
2018-01-10T04:02:30.473Z,85.70
2018-01-10T04:04:58.965Z,85.80
2018-01-10T04:07:27.567Z,86.10
2018-01-10T04:09:56.873Z,86.60
2018-01-10T04:12:26.229Z,86.30
2018-01-10T04:14:54.792Z,86.30
2018-01-10T04:17:23.436Z,86.40
2018-01-10T04:19:52.737Z,86.30
2018-01-10T04:22:23.271Z,86.10
2018-01-10T04:24:52.573Z,85.70
2018-01-10T04:27:21.984Z,85.50
2018-01-10T04:29:50.479Z,85.50
2018-01-10T04:32:18.992Z,86.00
2018-01-10T04:34:47.536Z,86.10
2018-01-10T04:37:16.069Z,85.70
2018-01-10T04:39:44.577Z,85.00
2018-01-10T04:42:13.850Z,84.40
2018-01-10T04:44:42.351Z,84.40
2018-01-10T04:47:11.657Z,83.90
2018-01-10T04:49:40.962Z,83.80
2018-01-10T04:52:10.284Z,83.90
2018-01-10T04:54:38.783Z,83.90
2018-01-10T04:57:07.323Z,84.00
2018-01-10T04:59:36.674Z,84.30
2018-01-10T05:02:05.200Z,84.30
2018-01-10T05:04:34.489Z,85.30
2018-01-10T05:07:03.790Z,86.50
2018-01-10T05:09:33.040Z,85.70
2018-01-10T05:12:01.519Z,85.70
2018-01-10T05:14:30.077Z,87.20
2018-01-10T05:16:58.606Z,87.20
2018-01-10T05:19:27.093Z,86.60
2018-01-10T05:21:55.720Z,86.90
2018-01-10T05:24:24.208Z,86.60
2018-01-10T05:26:52.715Z,86.30
2018-01-10T05:29:21.246Z,86.10
2018-01-10T05:31:50.516Z,86.40
2018-01-10T05:34:19.052Z,86.40
2018-01-10T05:36:47.516Z,86.90
2018-01-10T05:39:16.771Z,87.10
2018-01-10T05:41:45.278Z,87.10
2018-01-10T05:44:14.523Z,86.50
2018-01-10T05:46:43.000Z,86.40
2018-01-10T05:49:11.575Z,85.70
2018-01-10T05:51:40.048Z,85.60
2018-01-10T05:54:08.512Z,85.20
2018-01-10T05:56:37.786Z,84.60
2018-01-10T05:59:06.999Z,84.60
2018-01-10T06:01:37.096Z,87.20
2018-01-10T06:04:05.613Z,87.20
2018-01-10T06:06:34.425Z,87.00
2018-01-10T06:09:02.887Z,87.20
2018-01-10T06:11:31.364Z,85.90
2018-01-10T06:13:59.903Z,85.90
2018-01-10T06:16:28.424Z,87.40
2018-01-10T06:18:56.939Z,87.40
2018-01-10T06:21:25.455Z,87.50
2018-01-10T06:23:53.938Z,88.00
2018-01-10T06:26:22.478Z,88.50
2018-01-10T06:28:50.998Z,88.60
2018-01-10T06:31:19.530Z,88.30
2018-01-10T06:33:48.052Z,87.80
2018-01-10T06:36:16.575Z,87.30
2018-01-10T06:38:45.084Z,85.80
2018-01-10T06:41:13.550Z,84.80
2018-01-10T06:43:42.024Z,84.60
2018-01-10T06:46:10.605Z,86.90
2018-01-10T06:48:39.064Z,86.50
2018-01-10T06:51:08.380Z,85.40
2018-01-10T06:53:37.682Z,85.40
2018-01-10T06:56:06.900Z,86.00
2018-01-10T06:58:36.056Z,86.20
2018-01-10T07:01:05.818Z,86.00
2018-01-10T07:03:34.298Z,85.90
2018-01-10T07:06:02.837Z,85.20
2018-01-10T07:08:32.076Z,84.90
2018-01-10T07:11:01.394Z,85.40
2018-01-10T07:13:29.877Z,84.90
2018-01-10T07:15:58.397Z,84.20
2018-01-10T07:18:27.642Z,84.80
2018-01-10T07:20:56.162Z,84.90
2018-01-10T07:23:25.469Z,84.90
2018-01-10T07:25:54.751Z,86.80
2018-01-10T07:28:23.309Z,86.80
2018-01-10T07:30:51.809Z,87.30
2018-01-10T07:33:20.309Z,85.30
2018-01-10T07:35:49.594Z,84.50
2018-01-10T07:38:18.146Z,84.40
2018-01-10T07:40:46.658Z,84.50
2018-01-10T07:43:15.486Z,85.40
2018-01-10T07:45:44.010Z,87.10
2018-01-10T07:48:12.494Z,85.00
2018-01-10T07:50:40.984Z,84.60
2018-01-10T07:53:09.506Z,84.50
2018-01-10T07:55:37.992Z,84.20
2018-01-10T07:58:06.518Z,84.70
2018-01-10T08:00:35.060Z,84.50
2018-01-10T08:03:03.583Z,84.80
2018-01-10T08:05:32.093Z,84.50
2018-01-10T08:08:01.382Z,84.50
2018-01-10T08:10:30.665Z,84.70
2018-01-10T08:12:59.200Z,84.70
2018-01-10T08:15:27.673Z,85.70
2018-01-10T08:17:56.185Z,86.90
2018-01-10T08:20:24.701Z,86.40
2018-01-10T08:22:54.156Z,86.40
2018-01-10T08:25:22.633Z,86.50
2018-01-10T08:27:51.157Z,85.50
2018-01-10T08:30:19.696Z,85.50
2018-01-10T08:32:48.218Z,85.40
2018-01-10T08:35:16.821Z,86.10
2018-01-10T08:37:46.090Z,86.30
2018-01-10T08:40:15.511Z,86.10
2018-01-10T08:42:44.033Z,86.40
2018-01-10T08:45:12.549Z,87.60
2018-01-10T08:47:41.066Z,87.50
2018-01-10T08:50:10.357Z,88.40
2018-01-10T08:52:39.646Z,89.00
2018-01-10T08:55:08.211Z,89.00
2018-01-10T08:57:37.094Z,88.40
2018-01-10T09:00:05.410Z,88.10
2018-01-10T09:02:34.690Z,88.00
2018-01-10T09:05:03.302Z,88.00
2018-01-10T09:07:31.790Z,88.40
2018-01-10T09:10:00.348Z,88.60
2018-01-10T09:12:29.029Z,89.10
2018-01-10T09:14:58.345Z,88.80
2018-01-10T09:17:26.820Z,88.80
2018-01-10T09:19:56.054Z,87.70
2018-01-10T09:22:24.531Z,87.70
2018-01-10T09:24:52.997Z,87.40
2018-01-10T09:27:21.530Z,87.30
2018-01-10T09:29:50.010Z,87.30
2018-01-10T09:32:18.559Z,86.70
2018-01-10T09:34:47.069Z,86.10
2018-01-10T09:37:15.535Z,86.00
2018-01-10T09:39:44.058Z,85.70
2018-01-10T09:42:13.354Z,87.10
2018-01-10T09:44:42.638Z,88.40
2018-01-10T09:47:11.160Z,88.30
2018-01-10T09:49:39.636Z,90.10
2018-01-10T09:52:09.137Z,90.70
2018-01-10T09:54:37.765Z,90.30
2018-01-10T09:57:06.758Z,90.40
2018-01-10T09:59:35.538Z,90.80
2018-01-10T10:02:04.818Z,90.80
2018-01-10T10:04:33.353Z,90.70
2018-01-10T10:07:01.925Z,90.20
2018-01-10T10:09:30.393Z,90.30
2018-01-10T10:11:59.693Z,89.70
2018-01-10T10:14:28.237Z,90.10
2018-01-10T10:16:56.754Z,89.70
2018-01-10T10:19:25.295Z,89.90
2018-01-10T10:21:53.802Z,89.90
2018-01-10T10:24:22.310Z,90.10
2018-01-10T10:26:50.791Z,90.20
2018-01-10T10:29:19.260Z,90.00
2018-01-10T10:31:47.999Z,90.20
2018-01-10T10:34:16.507Z,90.20
2018-01-10T10:36:45.034Z,90.40
2018-01-10T10:39:14.278Z,90.20
2018-01-10T10:41:42.771Z,90.50
2018-01-10T10:44:11.252Z,90.60
2018-01-10T10:46:39.752Z,90.10
2018-01-10T10:49:08.265Z,90.20
2018-01-10T10:51:37.582Z,90.50
2018-01-10T10:54:06.715Z,90.40
2018-01-10T10:56:35.228Z,90.00
2018-01-10T10:59:03.703Z,89.40
2018-01-10T11:01:32.173Z,89.10
2018-01-10T11:04:00.689Z,89.80
2018-01-10T11:06:29.991Z,89.30
2018-01-10T11:08:59.271Z,87.70
2018-01-10T11:11:28.553Z,88.30
2018-01-10T11:13:57.086Z,88.30
2018-01-10T11:16:25.646Z,88.00
2018-01-10T11:18:54.926Z,87.80
2018-01-10T11:21:23.425Z,87.80
2018-01-10T11:23:52.704Z,86.80
2018-01-10T11:26:21.241Z,86.80
2018-01-10T11:28:49.743Z,87.80
2018-01-10T11:31:18.214Z,87.00
2018-01-10T11:33:46.732Z,86.50
2018-01-10T11:36:15.203Z,86.70
2018-01-10T11:38:43.721Z,86.50
2018-01-10T11:41:13.273Z,86.50
2018-01-10T11:43:41.781Z,86.50
2018-01-10T11:46:10.311Z,85.80
2018-01-10T11:48:39.569Z,86.10
2018-01-10T11:51:09.680Z,85.50
2018-01-10T11:53:39.000Z,86.10
2018-01-10T11:56:07.790Z,85.80
2018-01-10T11:58:37.070Z,85.00
2018-01-10T12:01:05.604Z,84.90
2018-01-10T12:03:34.124Z,84.80
2018-01-10T12:06:02.599Z,84.80
2018-01-10T12:08:31.109Z,83.80
2018-01-10T12:11:00.360Z,84.40
2018-01-10T12:13:28.872Z,84.30
2018-01-10T12:15:57.361Z,83.90
2018-01-10T12:18:26.615Z,82.90
2018-01-10T12:20:55.126Z,82.90
2018-01-10T12:23:23.598Z,82.60
2018-01-10T12:25:52.089Z,82.30
2018-01-10T12:28:20.601Z,81.70
2018-01-10T12:30:49.504Z,81.20
2018-01-10T12:33:17.990Z,81.20
2018-01-10T12:35:46.464Z,82.30
2018-01-10T12:38:14.985Z,81.40
2018-01-10T12:40:43.473Z,81.50
2018-01-10T12:43:11.987Z,82.20
2018-01-10T12:45:41.290Z,81.80
2018-01-10T12:48:10.540Z,80.50
2018-01-10T12:50:39.934Z,80.60
2018-01-10T12:53:09.298Z,81.40
2018-01-10T12:55:38.784Z,82.00
2018-01-10T12:58:08.046Z,82.30
2018-01-10T13:00:36.616Z,82.20
2018-01-10T13:03:05.091Z,81.60
2018-01-10T13:05:33.591Z,82.00
2018-01-10T13:08:02.105Z,82.10
2018-01-10T13:10:31.401Z,83.60
2018-01-10T13:12:59.947Z,83.40
2018-01-10T13:15:28.443Z,82.20
2018-01-10T13:17:56.990Z,81.70
2018-01-10T13:20:25.493Z,81.40
2018-01-10T13:22:54.003Z,80.90
2018-01-10T13:25:22.505Z,81.10
2018-01-10T13:27:51.732Z,81.10
2018-01-10T13:30:20.240Z,81.10
2018-01-10T13:32:48.721Z,81.40
2018-01-10T13:35:17.260Z,80.00
2018-01-10T13:37:45.759Z,79.70
2018-01-10T13:40:14.029Z,80.90
2018-01-10T13:42:42.567Z,83.30
2018-01-10T13:45:11.047Z,83.10
2018-01-10T13:47:39.560Z,83.00
2018-01-10T13:50:08.317Z,81.90
2018-01-10T13:52:38.358Z,81.90
2018-01-10T13:55:07.483Z,80.70
2018-01-10T13:57:35.970Z,81.50
2018-01-10T14:00:04.466Z,81.80
2018-01-10T14:02:33.945Z,80.70
2018-01-10T14:05:02.514Z,82.30
2018-01-10T14:07:31.256Z,78.50
2018-01-10T14:09:59.789Z,80.40
2018-01-10T14:12:28.280Z,82.50
2018-01-10T14:14:56.743Z,82.90
2018-01-10T14:17:25.294Z,78.80
2018-01-10T14:19:54.553Z,76.70
2018-01-10T14:22:24.091Z,76.60
2018-01-10T14:24:52.771Z,77.60
2018-01-10T14:27:21.292Z,78.70
2018-01-10T14:29:49.833Z,76.30
2018-01-10T14:32:19.280Z,76.80
2018-01-10T14:34:48.697Z,75.50
2018-01-10T14:37:17.187Z,75.50
2018-01-10T14:39:45.668Z,76.60
2018-01-10T14:42:15.162Z,76.70
2018-01-10T14:44:43.649Z,80.90
2018-01-10T14:47:12.147Z,78.50
2018-01-10T14:49:40.692Z,77.80
2018-01-10T14:52:09.980Z,77.50
2018-01-10T14:54:39.436Z,77.20
2018-01-10T14:57:07.990Z,77.50
2018-01-10T14:59:36.505Z,77.60
2018-01-10T15:02:05.020Z,77.40
2018-01-10T15:04:34.056Z,76.90
2018-01-10T15:07:02.553Z,76.90
2018-01-10T15:09:31.598Z,77.10
2018-01-10T15:12:00.108Z,76.90
2018-01-10T15:14:28.615Z,77.00
2018-01-10T15:16:57.066Z,76.90
2018-01-10T15:19:25.565Z,76.60
2018-01-10T15:21:54.043Z,76.80
2018-01-10T15:24:22.499Z,76.70
2018-01-10T15:26:50.960Z,76.60
2018-01-10T15:29:20.202Z,76.60
2018-01-10T15:31:48.691Z,76.60
2018-01-10T15:34:17.144Z,76.70
2018-01-10T15:40:17.336Z,76.60
2018-01-10T15:42:45.824Z,77.20
2018-01-10T15:45:15.039Z,77.30
2018-01-10T15:47:44.267Z,77.70
2018-01-10T15:50:12.715Z,77.60
2018-01-10T15:52:41.974Z,77.00
2018-01-10T15:55:10.453Z,76.90
2018-01-10T15:57:38.911Z,76.90
2018-01-10T16:00:07.418Z,76.90
2018-01-10T16:02:35.866Z,77.20
2018-01-10T16:05:04.347Z,77.20
2018-01-10T16:07:32.840Z,77.10
2018-01-10T16:10:01.295Z,77.60
2018-01-10T16:12:29.793Z,77.40
2018-01-10T16:14:58.246Z,78.20
2018-01-10T16:17:26.725Z,77.70
2018-01-10T16:19:55.203Z,78.10
2018-01-10T16:22:23.697Z,77.70
2018-01-10T16:24:52.191Z,77.90
2018-01-10T16:27:20.645Z,77.60
2018-01-10T16:29:49.126Z,77.20
2018-01-10T16:32:17.632Z,77.70
2018-01-10T16:34:46.107Z,77.10
2018-01-10T16:37:14.597Z,76.60
2018-01-10T16:39:43.081Z,77.40
2018-01-10T16:42:12.526Z,78.10
2018-01-10T16:44:41.741Z,77.20
2018-01-10T16:47:11.057Z,77.40
2018-01-10T16:49:40.176Z,77.50
2018-01-10T16:52:09.180Z,77.80
2018-01-10T16:54:38.173Z,77.70
2018-01-10T16:57:06.667Z,77.90
2018-01-10T16:59:35.176Z,78.10
2018-01-10T17:02:04.403Z,78.00
2018-01-10T17:04:32.879Z,77.90
2018-01-10T17:07:01.373Z,78.30
2018-01-10T17:09:30.546Z,78.20
2018-01-10T17:11:59.034Z,78.80
2018-01-10T17:14:27.487Z,78.80
2018-01-10T17:16:56.700Z,79.30
2018-01-10T17:19:25.174Z,79.30
2018-01-10T17:21:53.472Z,79.60
2018-01-10T17:24:21.987Z,79.50
2018-01-10T17:26:50.510Z,79.60
2018-01-10T17:29:19.764Z,80.00
2018-01-10T17:31:48.271Z,79.90
2018-01-10T17:34:16.747Z,80.30
2018-01-10T17:36:45.247Z,80.40
2018-01-10T17:39:14.465Z,80.70
2018-01-10T17:41:43.017Z,80.60
2018-01-10T17:44:11.489Z,80.60
2018-01-10T17:46:40.681Z,80.70
2018-01-10T17:49:09.210Z,80.80
2018-01-10T17:51:38.184Z,80.90
2018-01-10T17:54:06.682Z,80.80
2018-01-10T17:56:35.230Z,80.90
2018-01-10T17:59:04.566Z,80.90
2018-01-10T18:01:33.087Z,80.90
2018-01-10T18:04:01.673Z,80.80
2018-01-10T18:06:30.306Z,80.70
2018-01-10T18:08:58.847Z,80.60
2018-01-10T18:11:28.179Z,80.60
2018-01-10T18:13:56.898Z,80.60
2018-01-10T18:16:25.633Z,80.30
2018-01-10T18:18:54.334Z,80.20
2018-01-10T18:21:23.085Z,80.30
2018-01-10T18:23:52.575Z,80.40
2018-01-10T18:26:22.112Z,80.30
2018-01-10T18:28:50.850Z,80.20
2018-01-10T18:31:19.621Z,80.00
2018-01-10T18:33:48.318Z,80.20
2018-01-10T18:36:17.028Z,80.20
2018-01-10T18:38:46.483Z,80.40
2018-01-10T18:41:15.309Z,80.40
2018-01-10T18:43:44.057Z,80.10
2018-01-10T18:46:12.840Z,80.00
2018-01-10T18:48:41.674Z,80.30
2018-01-10T18:51:12.154Z,80.30
2018-01-10T18:53:41.587Z,80.30
2018-01-10T18:56:10.390Z,80.10
2018-01-10T18:58:39.564Z,80.30
2018-01-10T19:01:08.552Z,80.10
2018-01-10T19:03:37.316Z,80.10
2018-01-10T19:06:06.371Z,80.20
2018-01-10T19:08:35.919Z,80.40
2018-01-10T19:11:04.725Z,80.40
2018-01-10T19:13:33.270Z,80.10
2018-01-10T19:16:02.109Z,80.20
2018-01-10T19:18:30.827Z,80.20
2018-01-10T19:21:00.339Z,80.50
2018-01-10T19:23:29.710Z,80.30
2018-01-10T19:25:58.276Z,80.20
2018-01-10T19:28:26.969Z,80.00
2018-01-10T19:30:55.492Z,80.10
2018-01-10T19:33:24.019Z,80.20
2018-01-10T19:35:52.512Z,79.90
2018-01-10T19:38:21.084Z,80.00
2018-01-10T19:40:49.598Z,80.00
2018-01-10T19:43:18.099Z,79.80
2018-01-10T19:45:46.619Z,79.90
2018-01-10T19:48:15.079Z,80.00
2018-01-10T19:50:44.369Z,79.80
2018-01-10T19:53:13.727Z,80.00
2018-01-10T19:55:43.109Z,80.00
2018-01-10T19:58:11.676Z,80.00
2018-01-10T20:00:40.217Z,80.30
2018-01-10T20:03:09.522Z,80.30
2018-01-10T20:05:39.482Z,80.10
2018-01-10T20:08:07.991Z,80.70
2018-01-10T20:10:36.475Z,81.00
2018-01-10T20:13:04.968Z,81.20
2018-01-10T20:15:33.435Z,81.90
2018-01-10T20:18:01.950Z,82.30
2018-01-10T20:20:30.479Z,82.60
2018-01-10T20:22:58.961Z,83.10
2018-01-10T20:25:27.419Z,82.70
2018-01-10T20:27:55.896Z,82.90
2018-01-10T20:30:25.145Z,83.20
2018-01-10T20:32:53.638Z,83.90
2018-01-10T20:35:22.133Z,83.20
2018-01-10T20:37:50.627Z,83.30
2018-01-10T20:40:19.889Z,83.60
2018-01-10T20:42:48.437Z,83.60
2018-01-10T20:45:16.961Z,82.90
2018-01-10T20:47:45.529Z,83.50
2018-01-10T20:50:14.812Z,83.90
2018-01-10T20:52:43.276Z,83.90
2018-01-10T20:55:12.399Z,83.20
2018-01-10T20:57:41.743Z,83.50
2018-01-10T21:00:11.828Z,83.20
2018-01-10T21:02:41.208Z,83.20
2018-01-10T21:05:10.580Z,83.10
2018-01-10T21:07:39.765Z,83.70
2018-01-10T21:10:09.043Z,83.30
2018-01-10T21:12:37.593Z,83.30
2018-01-10T21:15:06.065Z,83.50
2018-01-10T21:17:34.577Z,83.50
2018-01-10T21:20:03.064Z,83.70
2018-01-10T21:22:31.573Z,83.80
2018-01-10T21:25:00.838Z,83.40
2018-01-10T21:27:29.362Z,83.40
2018-01-10T21:29:57.880Z,83.30
2018-01-10T21:32:26.498Z,83.20
2018-01-10T21:34:54.955Z,82.70
2018-01-10T21:37:23.451Z,83.90
2018-01-10T21:39:51.942Z,83.30
2018-01-10T21:42:20.394Z,83.40
2018-01-10T21:44:48.872Z,83.60
2018-01-10T21:47:17.463Z,83.50
2018-01-10T21:49:45.969Z,83.60
2018-01-10T21:52:15.324Z,83.70
2018-01-10T21:54:43.771Z,83.60
2018-01-10T21:57:12.302Z,83.30
2018-01-10T21:59:40.817Z,83.00
2018-01-10T22:02:11.074Z,83.60
2018-01-10T22:04:40.188Z,83.70
2018-01-10T22:07:08.733Z,83.50
2018-01-10T22:09:37.963Z,83.50
2018-01-10T22:12:06.404Z,83.40
2018-01-10T22:14:35.617Z,84.00
2018-01-10T22:17:04.226Z,83.90
2018-01-10T22:19:33.531Z,83.90
2018-01-10T22:22:02.131Z,83.80
2018-01-10T22:24:30.617Z,83.90
2018-01-10T22:26:59.099Z,83.80
2018-01-10T22:29:27.605Z,83.70
2018-01-10T22:31:56.856Z,82.70
2018-01-10T22:34:25.330Z,82.70
2018-01-10T22:36:53.869Z,82.10
2018-01-10T22:39:23.107Z,82.70
2018-01-10T22:41:52.427Z,82.70
2018-01-10T22:44:20.948Z,83.20
2018-01-10T22:46:51.032Z,83.40
2018-01-10T22:49:19.695Z,83.40
2018-01-10T22:51:48.232Z,83.50
2018-01-10T22:54:17.460Z,84.10
2018-01-10T22:56:45.975Z,83.90
2018-01-10T22:59:14.434Z,84.20
2018-01-10T23:01:42.943Z,83.80
2018-01-10T23:04:11.460Z,84.20
2018-01-10T23:06:40.339Z,84.40
2018-01-10T23:09:09.599Z,84.30
2018-01-10T23:11:38.248Z,84.40
2018-01-10T23:14:06.706Z,84.60
2018-01-10T23:16:35.909Z,84.70
2018-01-10T23:19:05.127Z,84.70
2018-01-10T23:21:33.770Z,84.70
2018-01-10T23:24:03.023Z,84.20
2018-01-10T23:26:33.208Z,84.20
2018-01-10T23:29:02.424Z,84.50
2018-01-10T23:31:30.969Z,84.50
2018-01-10T23:34:00.264Z,84.70
2018-01-10T23:36:28.941Z,84.60
2018-01-10T23:38:57.434Z,84.10
2018-01-10T23:41:25.918Z,84.00
2018-01-10T23:43:55.151Z,84.20
2018-01-10T23:46:23.717Z,84.20
2018-01-10T23:48:52.728Z,84.70
2018-01-10T23:51:21.489Z,84.60
2018-01-10T23:53:51.191Z,84.90
2018-01-10T23:56:20.579Z,84.90
2018-01-10T23:58:49.080Z,84.90
